sensor_id;sensor_type;location;lat;lon;timestamp;P1;durP1;ratioP1;P2;durP2;ratioP2
68923;SDS011;55961;52.156;20.942;2024-02-21T00:02:17;11.68;;;4.35;;
68923;SDS011;55961;52.156;20.942;2024-02-21T00:04:45;13.98;;;4.20;;
68923;SDS011;55961;52.156;20.942;2024-02-21T00:07:11;14.70;;;4.30;;
68923;SDS011;55961;52.156;20.942;2024-02-21T00:09:37;12.48;;;2.90;;
68923;SDS011;55961;52.156;20.942;2024-02-21T00:12:05;12.30;;;3.45;;
68923;SDS011;55961;52.156;20.942;2024-02-21T00:14:31;16.45;;;3.97;;
68923;SDS011;55961;52.156;20.942;2024-02-21T00:16:57;16.85;;;4.18;;
68923;SDS011;55961;52.156;20.942;2024-02-21T00:19:25;18.97;;;4.53;;
68923;SDS011;55961;52.156;20.942;2024-02-21T00:21:51;15.45;;;5.05;;
68923;SDS011;55961;52.156;20.942;2024-02-21T00:24:17;11.03;;;2.50;;
68923;SDS011;55961;52.156;20.942;2024-02-21T00:26:46;18.77;;;4.47;;
68923;SDS011;55961;52.156;20.942;2024-02-21T00:29:11;17.00;;;3.88;;
68923;SDS011;55961;52.156;20.942;2024-02-21T00:31:38;15.57;;;4.70;;
68923;SDS011;55961;52.156;20.942;2024-02-21T00:34:03;14.57;;;3.43;;
68923;SDS011;55961;52.156;20.942;2024-02-21T00:36:29;16.60;;;4.05;;
68923;SDS011;55961;52.156;20.942;2024-02-21T00:38:55;15.45;;;3.75;;
68923;SDS011;55961;52.156;20.942;2024-02-21T00:41:23;15.63;;;3.60;;
68923;SDS011;55961;52.156;20.942;2024-02-21T00:43:49;15.30;;;3.88;;
68923;SDS011;55961;52.156;20.942;2024-02-21T00:46:15;15.32;;;3.40;;
68923;SDS011;55961;52.156;20.942;2024-02-21T00:48:47;13.25;;;3.03;;
68923;SDS011;55961;52.156;20.942;2024-02-21T00:51:13;13.77;;;4.03;;
68923;SDS011;55961;52.156;20.942;2024-02-21T00:53:39;18.02;;;3.55;;
68923;SDS011;55961;52.156;20.942;2024-02-21T00:56:05;15.85;;;3.53;;
68923;SDS011;55961;52.156;20.942;2024-02-21T00:58:31;15.13;;;4.25;;
68923;SDS011;55961;52.156;20.942;2024-02-21T01:00:57;10.40;;;3.40;;
68923;SDS011;55961;52.156;20.942;2024-02-21T01:03:26;13.30;;;2.87;;
68923;SDS011;55961;52.156;20.942;2024-02-21T01:05:54;11.68;;;3.08;;
68923;SDS011;55961;52.156;20.942;2024-02-21T01:08:20;8.75;;;3.00;;
68923;SDS011;55961;52.156;20.942;2024-02-21T01:10:47;12.93;;;3.53;;
68923;SDS011;55961;52.156;20.942;2024-02-21T01:13:18;19.13;;;4.17;;
68923;SDS011;55961;52.156;20.942;2024-02-21T01:15:44;18.25;;;4.10;;
68923;SDS011;55961;52.156;20.942;2024-02-21T01:18:10;14.60;;;3.85;;
68923;SDS011;55961;52.156;20.942;2024-02-21T01:20:36;7.80;;;2.88;;
68923;SDS011;55961;52.156;20.942;2024-02-21T01:23:02;17.63;;;3.33;;
68923;SDS011;55961;52.156;20.942;2024-02-21T01:25:28;12.43;;;3.22;;
68923;SDS011;55961;52.156;20.942;2024-02-21T01:27:54;11.77;;;3.33;;
68923;SDS011;55961;52.156;20.942;2024-02-21T01:30:20;9.93;;;2.53;;
68923;SDS011;55961;52.156;20.942;2024-02-21T01:32:49;11.75;;;3.33;;
68923;SDS011;55961;52.156;20.942;2024-02-21T01:35:15;11.00;;;3.33;;
68923;SDS011;55961;52.156;20.942;2024-02-21T01:37:41;16.47;;;3.53;;
68923;SDS011;55961;52.156;20.942;2024-02-21T01:40:07;13.10;;;4.07;;
68923;SDS011;55961;52.156;20.942;2024-02-21T01:42:35;16.85;;;4.18;;
68923;SDS011;55961;52.156;20.942;2024-02-21T01:45:05;14.68;;;3.33;;
68923;SDS011;55961;52.156;20.942;2024-02-21T01:47:33;15.05;;;3.45;;
68923;SDS011;55961;52.156;20.942;2024-02-21T01:49:59;18.03;;;3.70;;
68923;SDS011;55961;52.156;20.942;2024-02-21T01:52:27;14.45;;;3.28;;
68923;SDS011;55961;52.156;20.942;2024-02-21T01:54:55;14.48;;;3.38;;
68923;SDS011;55961;52.156;20.942;2024-02-21T01:57:22;17.88;;;3.83;;
68923;SDS011;55961;52.156;20.942;2024-02-21T01:59:49;17.80;;;4.55;;
68923;SDS011;55961;52.156;20.942;2024-02-21T02:02:17;12.93;;;3.43;;
68923;SDS011;55961;52.156;20.942;2024-02-21T02:04:44;11.80;;;3.58;;
68923;SDS011;55961;52.156;20.942;2024-02-21T02:07:10;16.95;;;4.05;;
68923;SDS011;55961;52.156;20.942;2024-02-21T02:09:36;10.65;;;3.80;;
68923;SDS011;55961;52.156;20.942;2024-02-21T02:12:02;12.17;;;3.53;;
68923;SDS011;55961;52.156;20.942;2024-02-21T02:14:31;15.40;;;4.28;;
68923;SDS011;55961;52.156;20.942;2024-02-21T02:16:57;15.90;;;3.90;;
68923;SDS011;55961;52.156;20.942;2024-02-21T02:19:24;14.00;;;4.10;;
68923;SDS011;55961;52.156;20.942;2024-02-21T02:21:50;15.30;;;4.20;;
68923;SDS011;55961;52.156;20.942;2024-02-21T02:24:22;16.25;;;4.90;;
68923;SDS011;55961;52.156;20.942;2024-02-21T02:26:51;15.93;;;4.35;;
68923;SDS011;55961;52.156;20.942;2024-02-21T02:29:18;15.02;;;3.30;;
68923;SDS011;55961;52.156;20.942;2024-02-21T02:31:44;15.63;;;4.97;;
68923;SDS011;55961;52.156;20.942;2024-02-21T02:34:11;13.32;;;4.40;;
68923;SDS011;55961;52.156;20.942;2024-02-21T02:36:36;15.70;;;5.00;;
68923;SDS011;55961;52.156;20.942;2024-02-21T02:39:02;12.20;;;3.45;;
68923;SDS011;55961;52.156;20.942;2024-02-21T02:41:34;11.67;;;3.47;;
68923;SDS011;55961;52.156;20.942;2024-02-21T02:44:03;12.38;;;4.35;;
68923;SDS011;55961;52.156;20.942;2024-02-21T02:46:30;18.58;;;5.10;;
68923;SDS011;55961;52.156;20.942;2024-02-21T02:48:57;16.58;;;4.28;;
68923;SDS011;55961;52.156;20.942;2024-02-21T02:51:23;14.43;;;4.73;;
68923;SDS011;55961;52.156;20.942;2024-02-21T02:53:49;21.95;;;5.03;;
68923;SDS011;55961;52.156;20.942;2024-02-21T02:56:15;11.43;;;3.70;;
68923;SDS011;55961;52.156;20.942;2024-02-21T02:58:43;17.55;;;4.57;;
68923;SDS011;55961;52.156;20.942;2024-02-21T03:01:09;16.65;;;5.00;;
68923;SDS011;55961;52.156;20.942;2024-02-21T03:03:35;13.80;;;4.03;;
68923;SDS011;55961;52.156;20.942;2024-02-21T03:06:03;17.63;;;5.53;;
68923;SDS011;55961;52.156;20.942;2024-02-21T03:08:30;18.27;;;5.70;;
68923;SDS011;55961;52.156;20.942;2024-02-21T03:10:55;21.33;;;5.73;;
68923;SDS011;55961;52.156;20.942;2024-02-21T03:13:22;20.80;;;5.57;;
68923;SDS011;55961;52.156;20.942;2024-02-21T03:15:48;14.88;;;5.60;;
68923;SDS011;55961;52.156;20.942;2024-02-21T03:18:14;18.10;;;5.57;;
68923;SDS011;55961;52.156;20.942;2024-02-21T03:20:43;16.02;;;6.15;;
68923;SDS011;55961;52.156;20.942;2024-02-21T03:23:09;17.60;;;5.40;;
68923;SDS011;55961;52.156;20.942;2024-02-21T03:25:35;19.90;;;5.97;;
68923;SDS011;55961;52.156;20.942;2024-02-21T03:28:01;17.17;;;6.25;;
68923;SDS011;55961;52.156;20.942;2024-02-21T03:30:27;21.17;;;6.57;;
68923;SDS011;55961;52.156;20.942;2024-02-21T03:32:53;18.23;;;5.77;;
68923;SDS011;55961;52.156;20.942;2024-02-21T03:35:19;16.05;;;5.95;;
68923;SDS011;55961;52.156;20.942;2024-02-21T03:37:45;19.52;;;5.85;;
68923;SDS011;55961;52.156;20.942;2024-02-21T03:40:11;16.67;;;5.20;;
68923;SDS011;55961;52.156;20.942;2024-02-21T03:42:37;15.30;;;6.03;;
68923;SDS011;55961;52.156;20.942;2024-02-21T03:45:04;15.07;;;5.40;;
68923;SDS011;55961;52.156;20.942;2024-02-21T03:47:30;15.02;;;5.70;;
68923;SDS011;55961;52.156;20.942;2024-02-21T03:49:59;13.77;;;5.75;;
68923;SDS011;55961;52.156;20.942;2024-02-21T03:52:25;14.03;;;5.33;;
68923;SDS011;55961;52.156;20.942;2024-02-21T03:54:51;14.65;;;5.43;;
68923;SDS011;55961;52.156;20.942;2024-02-21T03:57:17;16.92;;;5.43;;
68923;SDS011;55961;52.156;20.942;2024-02-21T03:59:43;20.77;;;4.30;;
68923;SDS011;55961;52.156;20.942;2024-02-21T04:02:09;13.82;;;4.43;;
68923;SDS011;55961;52.156;20.942;2024-02-21T04:04:35;21.00;;;6.05;;
68923;SDS011;55961;52.156;20.942;2024-02-21T04:07:05;16.63;;;5.47;;
68923;SDS011;55961;52.156;20.942;2024-02-21T04:09:34;14.37;;;5.50;;
68923;SDS011;55961;52.156;20.942;2024-02-21T04:12:02;21.27;;;5.68;;
68923;SDS011;55961;52.156;20.942;2024-02-21T04:14:27;17.08;;;5.25;;
68923;SDS011;55961;52.156;20.942;2024-02-21T04:16:54;19.88;;;5.40;;
68923;SDS011;55961;52.156;20.942;2024-02-21T04:19:20;17.50;;;5.87;;
68923;SDS011;55961;52.156;20.942;2024-02-21T04:21:46;18.50;;;5.40;;
68923;SDS011;55961;52.156;20.942;2024-02-21T04:24:12;15.68;;;5.85;;
68923;SDS011;55961;52.156;20.942;2024-02-21T04:26:38;26.00;;;9.10;;
68923;SDS011;55961;52.156;20.942;2024-02-21T04:29:04;16.45;;;6.05;;
68923;SDS011;55961;52.156;20.942;2024-02-21T04:31:31;20.20;;;6.10;;
68923;SDS011;55961;52.156;20.942;2024-02-21T04:33:58;15.93;;;5.75;;
68923;SDS011;55961;52.156;20.942;2024-02-21T04:36:25;20.85;;;7.18;;
68923;SDS011;55961;52.156;20.942;2024-02-21T04:38:51;22.38;;;6.65;;
68923;SDS011;55961;52.156;20.942;2024-02-21T04:41:20;23.97;;;7.57;;
68923;SDS011;55961;52.156;20.942;2024-02-21T04:43:46;21.63;;;11.30;;
68923;SDS011;55961;52.156;20.942;2024-02-21T04:46:15;30.35;;;16.90;;
68923;SDS011;55961;52.156;20.942;2024-02-21T04:48:41;23.50;;;12.20;;
68923;SDS011;55961;52.156;20.942;2024-02-21T04:51:07;50.37;;;37.57;;
68923;SDS011;55961;52.156;20.942;2024-02-21T04:53:35;24.42;;;11.65;;
68923;SDS011;55961;52.156;20.942;2024-02-21T04:56:04;19.50;;;6.93;;
68923;SDS011;55961;52.156;20.942;2024-02-21T04:58:30;19.77;;;7.83;;
68923;SDS011;55961;52.156;20.942;2024-02-21T05:00:58;19.07;;;6.47;;
68923;SDS011;55961;52.156;20.942;2024-02-21T05:03:24;18.13;;;7.13;;
68923;SDS011;55961;52.156;20.942;2024-02-21T05:05:50;23.25;;;10.38;;
68923;SDS011;55961;52.156;20.942;2024-02-21T05:08:16;32.37;;;12.10;;
68923;SDS011;55961;52.156;20.942;2024-02-21T05:10:45;26.63;;;13.82;;
68923;SDS011;55961;52.156;20.942;2024-02-21T05:13:11;29.02;;;14.43;;
68923;SDS011;55961;52.156;20.942;2024-02-21T05:15:39;23.53;;;11.73;;
68923;SDS011;55961;52.156;20.942;2024-02-21T05:18:05;29.48;;;10.55;;
68923;SDS011;55961;52.156;20.942;2024-02-21T05:20:33;23.02;;;11.73;;
68923;SDS011;55961;52.156;20.942;2024-02-21T05:22:59;17.40;;;8.23;;
68923;SDS011;55961;52.156;20.942;2024-02-21T05:25:25;22.37;;;8.73;;
68923;SDS011;55961;52.156;20.942;2024-02-21T05:27:51;18.20;;;7.15;;
68923;SDS011;55961;52.156;20.942;2024-02-21T05:30:19;17.73;;;7.10;;
68923;SDS011;55961;52.156;20.942;2024-02-21T05:32:47;23.25;;;7.80;;
68923;SDS011;55961;52.156;20.942;2024-02-21T05:35:13;15.23;;;6.50;;
68923;SDS011;55961;52.156;20.942;2024-02-21T05:37:39;18.70;;;6.95;;
68923;SDS011;55961;52.156;20.942;2024-02-21T05:40:06;17.83;;;6.80;;
68923;SDS011;55961;52.156;20.942;2024-02-21T05:42:35;17.95;;;7.35;;
68923;SDS011;55961;52.156;20.942;2024-02-21T05:45:01;18.88;;;6.45;;
68923;SDS011;55961;52.156;20.942;2024-02-21T05:47:30;24.67;;;10.20;;
68923;SDS011;55961;52.156;20.942;2024-02-21T05:49:58;24.42;;;9.07;;
68923;SDS011;55961;52.156;20.942;2024-02-21T05:52:24;22.15;;;9.70;;
68923;SDS011;55961;52.156;20.942;2024-02-21T05:54:50;21.83;;;8.48;;
68923;SDS011;55961;52.156;20.942;2024-02-21T05:57:18;21.33;;;8.27;;
68923;SDS011;55961;52.156;20.942;2024-02-21T05:59:44;28.67;;;10.27;;
68923;SDS011;55961;52.156;20.942;2024-02-21T06:02:10;23.90;;;8.75;;
68923;SDS011;55961;52.156;20.942;2024-02-21T06:04:37;29.13;;;16.13;;
68923;SDS011;55961;52.156;20.942;2024-02-21T06:07:10;31.42;;;13.57;;
68923;SDS011;55961;52.156;20.942;2024-02-21T06:09:39;26.53;;;11.50;;
68923;SDS011;55961;52.156;20.942;2024-02-21T06:12:04;22.38;;;10.52;;
68923;SDS011;55961;52.156;20.942;2024-02-21T06:14:31;22.02;;;9.63;;
68923;SDS011;55961;52.156;20.942;2024-02-21T06:16:56;30.27;;;12.97;;
68923;SDS011;55961;52.156;20.942;2024-02-21T06:19:22;35.90;;;13.82;;
68923;SDS011;55961;52.156;20.942;2024-02-21T06:21:51;28.63;;;11.07;;
68923;SDS011;55961;52.156;20.942;2024-02-21T06:24:17;30.02;;;9.43;;
68923;SDS011;55961;52.156;20.942;2024-02-21T06:26:43;27.93;;;10.83;;
68923;SDS011;55961;52.156;20.942;2024-02-21T06:29:09;28.15;;;11.73;;
68923;SDS011;55961;52.156;20.942;2024-02-21T06:31:35;28.63;;;10.93;;
68923;SDS011;55961;52.156;20.942;2024-02-21T06:34:01;32.53;;;11.63;;
68923;SDS011;55961;52.156;20.942;2024-02-21T06:36:29;27.50;;;11.38;;
68923;SDS011;55961;52.156;20.942;2024-02-21T06:38:55;37.15;;;14.48;;
68923;SDS011;55961;52.156;20.942;2024-02-21T06:41:21;32.10;;;13.63;;
68923;SDS011;55961;52.156;20.942;2024-02-21T06:43:47;23.87;;;10.23;;
68923;SDS011;55961;52.156;20.942;2024-02-21T06:46:26;44.00;;;16.35;;
68923;SDS011;55961;52.156;20.942;2024-02-21T06:48:58;35.38;;;16.25;;
68923;SDS011;55961;52.156;20.942;2024-02-21T06:51:29;29.40;;;12.10;;
68923;SDS011;55961;52.156;20.942;2024-02-21T06:53:55;40.13;;;16.05;;
68923;SDS011;55961;52.156;20.942;2024-02-21T06:56:23;39.13;;;18.50;;
68923;SDS011;55961;52.156;20.942;2024-02-21T06:58:56;33.75;;;12.02;;
68923;SDS011;55961;52.156;20.942;2024-02-21T07:01:23;32.80;;;11.88;;
68923;SDS011;55961;52.156;20.942;2024-02-21T07:03:49;38.70;;;15.02;;
68923;SDS011;55961;52.156;20.942;2024-02-21T07:06:15;26.90;;;10.88;;
68923;SDS011;55961;52.156;20.942;2024-02-21T07:08:41;32.37;;;12.87;;
68923;SDS011;55961;52.156;20.942;2024-02-21T07:11:09;31.88;;;11.18;;
68923;SDS011;55961;52.156;20.942;2024-02-21T07:13:36;58.92;;;21.88;;
68923;SDS011;55961;52.156;20.942;2024-02-21T07:16:02;43.55;;;14.55;;
68923;SDS011;55961;52.156;20.942;2024-02-21T07:18:29;29.10;;;10.07;;
68923;SDS011;55961;52.156;20.942;2024-02-21T07:20:55;26.65;;;11.15;;
68923;SDS011;55961;52.156;20.942;2024-02-21T07:23:22;30.58;;;12.20;;
68923;SDS011;55961;52.156;20.942;2024-02-21T07:25:47;28.23;;;10.30;;
68923;SDS011;55961;52.156;20.942;2024-02-21T07:28:16;34.47;;;12.65;;
68923;SDS011;55961;52.156;20.942;2024-02-21T07:30:42;27.38;;;10.40;;
68923;SDS011;55961;52.156;20.942;2024-02-21T07:33:11;30.08;;;11.43;;
68923;SDS011;55961;52.156;20.942;2024-02-21T07:35:37;24.03;;;9.30;;
68923;SDS011;55961;52.156;20.942;2024-02-21T07:38:04;40.20;;;14.17;;
68923;SDS011;55961;52.156;20.942;2024-02-21T07:40:32;52.25;;;17.77;;
68923;SDS011;55961;52.156;20.942;2024-02-21T07:42:58;46.28;;;14.35;;
68923;SDS011;55961;52.156;20.942;2024-02-21T07:45:24;40.60;;;15.25;;
68923;SDS011;55961;52.156;20.942;2024-02-21T07:47:50;38.93;;;13.67;;
68923;SDS011;55961;52.156;20.942;2024-02-21T07:50:16;32.88;;;12.75;;
68923;SDS011;55961;52.156;20.942;2024-02-21T07:52:42;25.15;;;9.38;;
68923;SDS011;55961;52.156;20.942;2024-02-21T07:55:08;34.20;;;12.38;;
68923;SDS011;55961;52.156;20.942;2024-02-21T07:57:36;36.28;;;12.50;;
68923;SDS011;55961;52.156;20.942;2024-02-21T08:00:02;33.90;;;11.87;;
68923;SDS011;55961;52.156;20.942;2024-02-21T08:02:30;30.58;;;12.02;;
68923;SDS011;55961;52.156;20.942;2024-02-21T08:04:55;28.25;;;9.90;;
68923;SDS011;55961;52.156;20.942;2024-02-21T08:07:21;33.80;;;14.80;;
68923;SDS011;55961;52.156;20.942;2024-02-21T08:09:47;37.25;;;12.80;;
68923;SDS011;55961;52.156;20.942;2024-02-21T08:12:13;34.40;;;10.90;;
68923;SDS011;55961;52.156;20.942;2024-02-21T08:14:42;40.10;;;12.27;;
68923;SDS011;55961;52.156;20.942;2024-02-21T08:17:10;34.30;;;13.00;;
68923;SDS011;55961;52.156;20.942;2024-02-21T08:19:38;37.42;;;11.57;;
68923;SDS011;55961;52.156;20.942;2024-02-21T08:22:04;34.55;;;9.82;;
68923;SDS011;55961;52.156;20.942;2024-02-21T08:24:29;27.30;;;11.10;;
68923;SDS011;55961;52.156;20.942;2024-02-21T08:26:58;30.20;;;10.80;;
68923;SDS011;55961;52.156;20.942;2024-02-21T08:29:24;32.60;;;11.90;;
68923;SDS011;55961;52.156;20.942;2024-02-21T08:31:51;32.05;;;10.90;;
68923;SDS011;55961;52.156;20.942;2024-02-21T08:34:18;33.97;;;11.87;;
68923;SDS011;55961;52.156;20.942;2024-02-21T08:36:44;24.23;;;8.70;;
68923;SDS011;55961;52.156;20.942;2024-02-21T08:39:10;32.90;;;11.40;;
68923;SDS011;55961;52.156;20.942;2024-02-21T08:41:36;26.58;;;10.32;;
68923;SDS011;55961;52.156;20.942;2024-02-21T08:44:02;30.93;;;10.50;;
68923;SDS011;55961;52.156;20.942;2024-02-21T08:46:28;26.77;;;9.63;;
68923;SDS011;55961;52.156;20.942;2024-02-21T08:48:55;25.90;;;8.65;;
68923;SDS011;55961;52.156;20.942;2024-02-21T08:51:21;32.10;;;10.30;;
68923;SDS011;55961;52.156;20.942;2024-02-21T08:53:47;24.20;;;8.37;;
68923;SDS011;55961;52.156;20.942;2024-02-21T08:56:14;23.25;;;8.15;;
68923;SDS011;55961;52.156;20.942;2024-02-21T08:58:40;14.07;;;5.65;;
68923;SDS011;55961;52.156;20.942;2024-02-21T09:01:07;30.17;;;8.50;;
68923;SDS011;55961;52.156;20.942;2024-02-21T09:03:36;25.53;;;8.43;;
68923;SDS011;55961;52.156;20.942;2024-02-21T09:06:06;31.70;;;9.65;;
68923;SDS011;55961;52.156;20.942;2024-02-21T09:08:33;28.70;;;9.27;;
68923;SDS011;55961;52.156;20.942;2024-02-21T09:10:59;23.30;;;7.65;;
68923;SDS011;55961;52.156;20.942;2024-02-21T09:13:28;25.65;;;8.10;;
68923;SDS011;55961;52.156;20.942;2024-02-21T09:15:55;24.20;;;7.93;;
68923;SDS011;55961;52.156;20.942;2024-02-21T09:18:23;17.20;;;6.53;;
68923;SDS011;55961;52.156;20.942;2024-02-21T09:20:50;25.33;;;8.38;;
68923;SDS011;55961;52.156;20.942;2024-02-21T09:23:23;23.70;;;7.25;;
68923;SDS011;55961;52.156;20.942;2024-02-21T09:25:51;23.40;;;7.00;;
68923;SDS011;55961;52.156;20.942;2024-02-21T09:28:25;23.73;;;6.80;;
68923;SDS011;55961;52.156;20.942;2024-02-21T09:30:51;14.07;;;4.30;;
68923;SDS011;55961;52.156;20.942;2024-02-21T09:33:20;16.45;;;6.18;;
68923;SDS011;55961;52.156;20.942;2024-02-21T09:35:47;21.05;;;5.88;;
68923;SDS011;55961;52.156;20.942;2024-02-21T09:38:13;20.58;;;5.10;;
68923;SDS011;55961;52.156;20.942;2024-02-21T09:40:39;11.80;;;4.00;;
68923;SDS011;55961;52.156;20.942;2024-02-21T09:43:07;19.33;;;6.35;;
68923;SDS011;55961;52.156;20.942;2024-02-21T09:45:33;11.23;;;4.38;;
68923;SDS011;55961;52.156;20.942;2024-02-21T09:51:01;27.17;;;6.20;;
68923;SDS011;55961;52.156;20.942;2024-02-21T09:53:31;15.40;;;4.17;;
68923;SDS011;55961;52.156;20.942;2024-02-21T09:55:59;20.52;;;5.18;;
68923;SDS011;55961;52.156;20.942;2024-02-21T09:58:26;22.35;;;5.60;;
68923;SDS011;55961;52.156;20.942;2024-02-21T10:00:53;13.85;;;4.40;;
68923;SDS011;55961;52.156;20.942;2024-02-21T10:03:19;13.40;;;4.60;;
68923;SDS011;55961;52.156;20.942;2024-02-21T10:05:48;13.60;;;4.43;;
68923;SDS011;55961;52.156;20.942;2024-02-21T10:08:17;20.95;;;4.47;;
68923;SDS011;55961;52.156;20.942;2024-02-21T10:10:45;18.65;;;4.35;;
68923;SDS011;55961;52.156;20.942;2024-02-21T10:13:27;11.57;;;3.80;;
68923;SDS011;55961;52.156;20.942;2024-02-21T10:16:00;13.10;;;4.25;;
68923;SDS011;55961;52.156;20.942;2024-02-21T10:18:27;15.07;;;3.40;;
68923;SDS011;55961;52.156;20.942;2024-02-21T10:21:00;17.90;;;5.47;;
68923;SDS011;55961;52.156;20.942;2024-02-21T10:23:26;22.17;;;5.75;;
68923;SDS011;55961;52.156;20.942;2024-02-21T10:25:52;19.67;;;4.85;;
68923;SDS011;55961;52.156;20.942;2024-02-21T10:28:18;16.30;;;5.60;;
68923;SDS011;55961;52.156;20.942;2024-02-21T10:30:53;21.52;;;5.00;;
68923;SDS011;55961;52.156;20.942;2024-02-21T10:33:23;14.85;;;5.78;;
68923;SDS011;55961;52.156;20.942;2024-02-21T10:35:51;14.98;;;4.90;;
68923;SDS011;55961;52.156;20.942;2024-02-21T10:38:16;20.70;;;6.37;;
68923;SDS011;55961;52.156;20.942;2024-02-21T10:40:42;18.73;;;5.50;;
68923;SDS011;55961;52.156;20.942;2024-02-21T10:43:12;19.23;;;6.13;;
68923;SDS011;55961;52.156;20.942;2024-02-21T10:45:44;10.02;;;4.93;;
68923;SDS011;55961;52.156;20.942;2024-02-21T10:48:11;19.05;;;7.22;;
68923;SDS011;55961;52.156;20.942;2024-02-21T10:53:44;15.30;;;6.20;;
68923;SDS011;55961;52.156;20.942;2024-02-21T10:58:59;24.08;;;8.63;;
68923;SDS011;55961;52.156;20.942;2024-02-21T11:01:28;21.30;;;7.43;;
68923;SDS011;55961;52.156;20.942;2024-02-21T11:03:57;17.17;;;8.20;;
68923;SDS011;55961;52.156;20.942;2024-02-21T11:06:26;20.92;;;8.13;;
68923;SDS011;55961;52.156;20.942;2024-02-21T11:11:36;15.82;;;5.47;;
68923;SDS011;55961;52.156;20.942;2024-02-21T11:16:40;25.63;;;8.73;;
68923;SDS011;55961;52.156;20.942;2024-02-21T11:19:18;23.15;;;8.80;;
68923;SDS011;55961;52.156;20.942;2024-02-21T11:21:45;23.10;;;9.43;;
68923;SDS011;55961;52.156;20.942;2024-02-21T11:24:14;18.10;;;8.05;;
68923;SDS011;55961;52.156;20.942;2024-02-21T11:27:07;23.35;;;8.95;;
68923;SDS011;55961;52.156;20.942;2024-02-21T11:29:43;21.90;;;7.20;;
68923;SDS011;55961;52.156;20.942;2024-02-21T11:32:10;19.60;;;8.18;;
68923;SDS011;55961;52.156;20.942;2024-02-21T11:34:37;15.60;;;6.90;;
68923;SDS011;55961;52.156;20.942;2024-02-21T11:37:15;23.33;;;9.32;;
68923;SDS011;55961;52.156;20.942;2024-02-21T11:39:43;17.88;;;7.65;;
68923;SDS011;55961;52.156;20.942;2024-02-21T11:42:09;19.37;;;7.27;;
68923;SDS011;55961;52.156;20.942;2024-02-21T11:44:38;19.73;;;8.13;;
68923;SDS011;55961;52.156;20.942;2024-02-21T11:47:22;20.67;;;9.07;;
68923;SDS011;55961;52.156;20.942;2024-02-21T11:49:50;20.70;;;7.30;;
68923;SDS011;55961;52.156;20.942;2024-02-21T11:52:22;22.80;;;9.38;;
68923;SDS011;55961;52.156;20.942;2024-02-21T11:54:55;16.43;;;6.70;;
68923;SDS011;55961;52.156;20.942;2024-02-21T11:57:29;20.67;;;8.70;;
68923;SDS011;55961;52.156;20.942;2024-02-21T11:59:55;18.25;;;7.32;;
68923;SDS011;55961;52.156;20.942;2024-02-21T12:02:21;21.17;;;9.47;;
68923;SDS011;55961;52.156;20.942;2024-02-21T12:04:47;22.73;;;8.10;;
68923;SDS011;55961;52.156;20.942;2024-02-21T12:07:17;31.63;;;7.97;;
68923;SDS011;55961;52.156;20.942;2024-02-21T12:09:44;23.40;;;8.80;;
68923;SDS011;55961;52.156;20.942;2024-02-21T12:12:10;19.33;;;6.87;;
68923;SDS011;55961;52.156;20.942;2024-02-21T12:14:38;32.50;;;12.20;;
68923;SDS011;55961;52.156;20.942;2024-02-21T12:17:04;30.20;;;9.73;;
68923;SDS011;55961;52.156;20.942;2024-02-21T12:19:31;28.13;;;11.70;;
68923;SDS011;55961;52.156;20.942;2024-02-21T12:21:58;27.80;;;10.05;;
68923;SDS011;55961;52.156;20.942;2024-02-21T12:24:25;30.33;;;11.27;;
68923;SDS011;55961;52.156;20.942;2024-02-21T12:26:55;32.50;;;12.15;;
68923;SDS011;55961;52.156;20.942;2024-02-21T12:29:24;27.85;;;11.48;;
68923;SDS011;55961;52.156;20.942;2024-02-21T12:31:50;26.60;;;11.45;;
68923;SDS011;55961;52.156;20.942;2024-02-21T12:34:16;20.83;;;8.52;;
68923;SDS011;55961;52.156;20.942;2024-02-21T12:36:45;26.27;;;11.20;;
68923;SDS011;55961;52.156;20.942;2024-02-21T12:39:14;23.80;;;9.65;;
68923;SDS011;55961;52.156;20.942;2024-02-21T12:41:40;27.05;;;10.18;;
68923;SDS011;55961;52.156;20.942;2024-02-21T12:44:09;23.70;;;11.32;;
68923;SDS011;55961;52.156;20.942;2024-02-21T12:46:38;23.63;;;8.77;;
68923;SDS011;55961;52.156;20.942;2024-02-21T12:49:07;30.10;;;10.93;;
68923;SDS011;55961;52.156;20.942;2024-02-21T12:51:36;30.52;;;11.95;;
68923;SDS011;55961;52.156;20.942;2024-02-21T12:54:03;25.77;;;9.77;;
68923;SDS011;55961;52.156;20.942;2024-02-21T12:56:29;31.50;;;11.00;;
68923;SDS011;55961;52.156;20.942;2024-02-21T12:58:56;29.37;;;10.07;;
68923;SDS011;55961;52.156;20.942;2024-02-21T13:01:25;32.22;;;10.35;;
68923;SDS011;55961;52.156;20.942;2024-02-21T13:03:51;26.73;;;10.00;;
68923;SDS011;55961;52.156;20.942;2024-02-21T13:06:17;27.95;;;10.88;;
68923;SDS011;55961;52.156;20.942;2024-02-21T13:08:44;22.77;;;8.50;;
68923;SDS011;55961;52.156;20.942;2024-02-21T13:11:11;28.02;;;11.05;;
68923;SDS011;55961;52.156;20.942;2024-02-21T13:13:38;32.10;;;11.07;;
68923;SDS011;55961;52.156;20.942;2024-02-21T13:16:04;23.63;;;10.93;;
68923;SDS011;55961;52.156;20.942;2024-02-21T13:18:31;28.07;;;10.00;;
68923;SDS011;55961;52.156;20.942;2024-02-21T13:20:57;22.88;;;9.20;;
68923;SDS011;55961;52.156;20.942;2024-02-21T13:23:26;18.98;;;8.38;;
68923;SDS011;55961;52.156;20.942;2024-02-21T13:25:52;21.20;;;6.93;;
68923;SDS011;55961;52.156;20.942;2024-02-21T13:28:20;23.60;;;9.15;;
68923;SDS011;55961;52.156;20.942;2024-02-21T13:30:46;18.13;;;8.47;;
68923;SDS011;55961;52.156;20.942;2024-02-21T13:33:13;19.48;;;7.60;;
68923;SDS011;55961;52.156;20.942;2024-02-21T13:35:43;24.92;;;8.45;;
68923;SDS011;55961;52.156;20.942;2024-02-21T13:38:10;19.20;;;7.53;;
68923;SDS011;55961;52.156;20.942;2024-02-21T13:40:42;18.88;;;8.80;;
68923;SDS011;55961;52.156;20.942;2024-02-21T13:43:08;22.30;;;7.77;;
68923;SDS011;55961;52.156;20.942;2024-02-21T13:45:37;24.70;;;9.85;;
68923;SDS011;55961;52.156;20.942;2024-02-21T13:48:07;18.88;;;7.43;;
68923;SDS011;55961;52.156;20.942;2024-02-21T13:50:36;16.65;;;7.55;;
68923;SDS011;55961;52.156;20.942;2024-02-21T13:53:08;24.80;;;8.93;;
68923;SDS011;55961;52.156;20.942;2024-02-21T13:55:36;19.90;;;8.73;;
68923;SDS011;55961;52.156;20.942;2024-02-21T13:58:04;18.88;;;6.45;;
68923;SDS011;55961;52.156;20.942;2024-02-21T14:00:29;24.35;;;8.48;;
68923;SDS011;55961;52.156;20.942;2024-02-21T14:02:55;22.08;;;7.05;;
68923;SDS011;55961;52.156;20.942;2024-02-21T14:05:27;35.77;;;14.57;;
68923;SDS011;55961;52.156;20.942;2024-02-21T14:07:53;26.77;;;10.43;;
68923;SDS011;55961;52.156;20.942;2024-02-21T14:10:23;28.02;;;9.40;;
68923;SDS011;55961;52.156;20.942;2024-02-21T14:12:49;27.17;;;9.65;;
68923;SDS011;55961;52.156;20.942;2024-02-21T14:15:25;19.65;;;7.43;;
68923;SDS011;55961;52.156;20.942;2024-02-21T14:17:54;29.77;;;10.87;;
68923;SDS011;55961;52.156;20.942;2024-02-21T14:20:21;20.85;;;7.05;;
68923;SDS011;55961;52.156;20.942;2024-02-21T14:22:47;40.10;;;14.65;;
68923;SDS011;55961;52.156;20.942;2024-02-21T14:25:13;26.17;;;8.80;;
68923;SDS011;55961;52.156;20.942;2024-02-21T14:27:41;19.13;;;6.93;;
68923;SDS011;55961;52.156;20.942;2024-02-21T14:30:10;21.15;;;8.82;;
68923;SDS011;55961;52.156;20.942;2024-02-21T14:32:37;21.20;;;8.80;;
68923;SDS011;55961;52.156;20.942;2024-02-21T14:35:03;26.25;;;9.27;;